createdAt,value
2018-12-23T00:01:48.003Z,98.79
2018-12-23T00:04:17.274Z,98.74
2018-12-23T00:06:46.843Z,99.06
2018-12-23T00:09:16.183Z,99.28
2018-12-23T00:11:45.474Z,98.82
2018-12-23T00:14:15.443Z,99.09
2018-12-23T00:16:45.045Z,99.43
2018-12-23T00:19:15.543Z,99.29
2018-12-23T00:21:45.130Z,98.95
2018-12-23T00:24:14.407Z,99.08
2018-12-23T00:26:43.990Z,98.99
2018-12-23T00:29:13.303Z,98.78
2018-12-23T00:31:42.579Z,98.69
2018-12-23T00:34:12.093Z,98.74
2018-12-23T00:36:43.623Z,98.48
2018-12-23T00:39:13.193Z,98.83
2018-12-23T00:41:43.278Z,98.52
2018-12-23T00:44:12.659Z,98.42
2018-12-23T00:46:42.425Z,98.43
2018-12-23T00:49:11.695Z,98.33
2018-12-23T00:51:41.547Z,98.12
2018-12-23T00:54:11.118Z,98.31
2018-12-23T00:56:40.951Z,98.42
2018-12-23T00:59:10.238Z,98.08
2018-12-23T01:04:45.616Z,98.59
2018-12-23T01:07:16.195Z,98.29
2018-12-23T01:09:45.478Z,98.53
2018-12-23T01:15:17.720Z,98.87
2018-12-23T01:17:47.284Z,98.57
2018-12-23T01:20:16.712Z,99.00
2018-12-23T01:22:47.925Z,98.76
2018-12-23T01:25:17.379Z,98.69
2018-12-23T01:27:48.407Z,98.51
2018-12-23T01:30:25.689Z,98.71
2018-12-23T01:32:56.757Z,98.75
2018-12-23T01:35:27.198Z,98.75
2018-12-23T01:37:56.539Z,98.80
2018-12-23T01:40:25.805Z,99.28
2018-12-23T01:42:55.315Z,99.46
2018-12-23T01:45:24.575Z,99.45
2018-12-23T01:47:53.850Z,99.76
2018-12-23T01:50:23.384Z,100.00
2018-12-23T01:52:52.669Z,99.83
2018-12-23T01:55:22.025Z,99.95
2018-12-23T01:57:51.591Z,99.70
2018-12-23T02:00:20.860Z,99.94
2018-12-23T02:02:50.162Z,100.00
2018-12-23T02:05:19.462Z,99.43
2018-12-23T02:07:48.800Z,99.51
2018-12-23T02:10:24.142Z,99.54
2018-12-23T02:12:54.019Z,99.61
2018-12-23T02:15:23.461Z,99.70
2018-12-23T02:17:52.931Z,99.62
2018-12-23T02:26:44.147Z,99.75
2018-12-23T02:29:13.703Z,99.50
2018-12-23T02:31:42.995Z,99.34
2018-12-23T02:34:12.586Z,99.46
2018-12-23T02:36:42.038Z,99.37
2018-12-23T02:39:11.644Z,99.04
2018-12-23T02:41:40.932Z,99.40
2018-12-23T02:44:10.515Z,99.48
2018-12-23T02:46:39.782Z,99.11
2018-12-23T02:49:09.065Z,99.52
2018-12-23T02:51:40.572Z,99.04
2018-12-23T02:54:10.210Z,99.13
2018-12-23T02:56:39.779Z,99.23
2018-12-23T02:59:09.445Z,99.04
2018-12-23T03:01:38.705Z,98.70
2018-12-23T03:04:08.228Z,98.50
2018-12-23T03:06:37.487Z,98.59
2018-12-23T03:09:06.777Z,98.25
2018-12-23T03:11:36.061Z,98.22
2018-12-23T03:14:05.359Z,98.39
2018-12-23T03:16:34.628Z,98.21
2018-12-23T03:19:03.900Z,98.34
2018-12-23T03:21:34.847Z,98.52
2018-12-23T03:24:04.146Z,98.47
2018-12-23T03:26:33.725Z,98.29
2018-12-23T03:29:03.007Z,98.42
2018-12-23T03:44:02.147Z,99.15
2018-12-23T03:46:31.410Z,99.35
2018-12-23T03:49:00.688Z,99.07
2018-12-23T03:51:30.907Z,99.18
2018-12-23T03:54:00.545Z,99.42
2018-12-23T03:56:30.821Z,99.33
2018-12-23T03:59:00.132Z,99.33
2018-12-23T04:01:31.007Z,99.41
2018-12-23T04:04:00.561Z,99.68
2018-12-23T04:06:30.456Z,100.00
2018-12-23T04:08:59.701Z,99.67
2018-12-23T04:11:28.973Z,99.97
2018-12-23T04:13:58.501Z,100.00
2018-12-23T04:16:28.001Z,100.00
2018-12-23T04:18:57.621Z,100.00
2018-12-23T04:21:26.896Z,100.00
2018-12-23T04:23:56.179Z,100.00
2018-12-23T04:26:25.773Z,100.00
2018-12-23T04:28:55.068Z,100.00
2018-12-23T04:31:24.583Z,100.00
2018-12-23T04:33:53.882Z,100.00
2018-12-23T04:36:23.673Z,100.00
2018-12-23T04:38:53.069Z,99.81
2018-12-23T04:41:22.339Z,100.00
2018-12-23T04:43:51.919Z,99.44
2018-12-23T04:46:21.187Z,99.58
2018-12-23T04:48:50.471Z,99.51
2018-12-23T04:51:19.738Z,99.14
2018-12-23T04:53:49.079Z,98.57
2018-12-23T04:56:18.656Z,98.37
2018-12-23T04:58:48.231Z,98.50
2018-12-23T05:01:17.738Z,98.33
2018-12-23T05:03:47.023Z,98.29
2018-12-23T05:06:17.906Z,98.31
2018-12-23T05:08:47.490Z,98.42
2018-12-23T05:11:16.757Z,98.36
2018-12-23T05:13:46.331Z,98.21
2018-12-23T05:16:15.895Z,98.13
2018-12-23T05:18:45.171Z,97.71
2018-12-23T05:21:14.784Z,97.58
2018-12-23T05:23:44.056Z,97.32
2018-12-23T05:26:13.623Z,97.56
2018-12-23T05:28:42.906Z,97.14
2018-12-23T05:31:12.199Z,97.31
2018-12-23T05:33:41.460Z,97.36
2018-12-23T05:36:10.759Z,97.34
2018-12-23T05:38:40.278Z,97.20
2018-12-23T05:41:09.729Z,97.22
2018-12-23T05:43:39.024Z,97.06
2018-12-23T05:46:08.785Z,97.10
2018-12-23T05:48:38.328Z,97.52
2018-12-23T05:51:07.841Z,97.36
2018-12-23T05:53:37.108Z,97.39
2018-12-23T05:56:06.394Z,97.12
2018-12-23T05:58:35.943Z,97.35
2018-12-23T06:01:05.232Z,96.84
2018-12-23T06:03:35.597Z,96.96
2018-12-23T06:06:05.216Z,97.19
2018-12-23T06:08:34.774Z,96.80
2018-12-23T06:11:04.073Z,96.94
2018-12-23T06:13:34.215Z,96.80
2018-12-23T06:16:03.487Z,96.97
2018-12-23T06:18:33.272Z,97.01
2018-12-23T06:21:02.838Z,96.88
2018-12-23T06:23:32.356Z,96.69
2018-12-23T06:26:01.864Z,96.58
2018-12-23T06:28:31.164Z,96.29
2018-12-23T06:31:00.720Z,96.30
2018-12-23T06:33:31.225Z,96.67
2018-12-23T06:36:02.259Z,96.66
2018-12-23T06:38:31.516Z,96.37
2018-12-23T06:41:00.952Z,96.67
2018-12-23T06:43:30.232Z,96.79
2018-12-23T06:45:59.791Z,96.69
2018-12-23T06:48:29.078Z,96.83
2018-12-23T06:50:58.356Z,96.92
2018-12-23T06:53:27.634Z,96.83
2018-12-23T06:55:56.972Z,96.48
2018-12-23T06:58:26.243Z,96.41
2018-12-23T07:00:55.812Z,96.71
2018-12-23T07:03:25.089Z,96.60
2018-12-23T07:05:54.364Z,96.50
2018-12-23T07:08:25.091Z,96.70
2018-12-23T07:10:54.379Z,96.97
2018-12-23T07:13:23.674Z,96.71
2018-12-23T07:15:53.287Z,96.82
2018-12-23T07:18:22.572Z,96.53
2018-12-23T07:20:52.160Z,96.58
2018-12-23T07:23:21.444Z,96.52
2018-12-23T07:25:50.702Z,96.29
2018-12-23T07:28:20.191Z,96.12
2018-12-23T07:30:49.464Z,95.80
2018-12-23T07:33:19.036Z,96.18
2018-12-23T07:35:48.307Z,96.25
2018-12-23T07:38:17.602Z,96.01
2018-12-23T07:40:47.170Z,96.19
2018-12-23T07:43:16.460Z,96.17
2018-12-23T07:45:45.741Z,96.56
2018-12-23T07:48:14.993Z,96.32
2018-12-23T07:50:44.487Z,96.21
2018-12-23T07:53:14.722Z,95.82
2018-12-23T07:55:44.351Z,95.83
2018-12-23T07:58:13.623Z,95.72
2018-12-23T08:00:43.145Z,95.70
2018-12-23T08:03:12.410Z,96.04
2018-12-23T08:05:41.690Z,95.96
2018-12-23T08:08:11.063Z,95.98
2018-12-23T08:10:40.346Z,95.68
2018-12-23T08:13:09.625Z,95.62
2018-12-23T08:15:39.376Z,95.71
2018-12-23T08:18:08.654Z,95.59
2018-12-23T08:20:38.219Z,95.38
2018-12-23T08:23:07.507Z,95.64
2018-12-23T08:25:37.079Z,95.59
2018-12-23T08:28:06.370Z,95.14
2018-12-23T08:30:36.519Z,95.32
2018-12-23T08:33:06.106Z,95.52
2018-12-23T08:35:35.379Z,95.33
2018-12-23T08:38:04.659Z,95.25
2018-12-23T08:40:34.255Z,95.32
2018-12-23T08:43:03.538Z,95.19
2018-12-23T10:23:30.268Z,93.63
2018-12-23T10:25:59.590Z,93.40
2018-12-23T10:28:29.091Z,93.84
2018-12-23T10:30:58.457Z,93.67
2018-12-23T10:33:28.322Z,93.51
2018-12-23T10:35:59.075Z,93.79
2018-12-23T10:38:28.326Z,93.83
2018-12-23T10:40:57.608Z,94.02
2018-12-23T10:43:26.875Z,93.50
2018-12-23T10:45:56.519Z,93.94
2018-12-23T10:48:27.947Z,93.61
2018-12-23T10:50:57.623Z,93.59
2018-12-23T10:53:27.408Z,93.88
2018-12-23T10:55:56.678Z,93.77
2018-12-23T10:58:25.947Z,94.06
2018-12-23T11:04:01.569Z,93.67
2018-12-23T11:06:31.955Z,94.14
2018-12-23T11:09:01.527Z,93.97
2018-12-23T11:11:30.921Z,94.00
2018-12-23T11:14:00.507Z,94.19
2018-12-23T11:16:30.008Z,94.33
2018-12-23T11:35:34.867Z,95.17
2018-12-23T11:38:04.138Z,95.55
2018-12-23T11:40:34.751Z,95.76
2018-12-23T11:43:04.063Z,95.92
2018-12-23T11:45:33.396Z,96.08
2018-12-23T11:48:02.669Z,96.27
2018-12-23T11:50:31.960Z,96.43
2018-12-23T11:53:01.408Z,96.84
2018-12-23T11:55:31.940Z,96.32
2018-12-23T11:58:01.792Z,96.29
2018-12-23T12:00:31.083Z,95.99
2018-12-23T12:03:00.353Z,96.05
2018-12-23T12:05:29.871Z,96.22
2018-12-23T12:07:59.151Z,96.66
2018-12-23T12:10:28.462Z,96.85
2018-12-23T12:12:57.968Z,97.29
2018-12-23T12:15:27.412Z,97.01
2018-12-23T12:17:56.771Z,97.64
2018-12-23T12:20:26.088Z,97.71
2018-12-23T12:22:55.356Z,97.71
2018-12-23T12:25:24.834Z,97.51
2018-12-23T12:27:54.116Z,97.58
2018-12-23T12:30:23.427Z,97.59
2018-12-23T12:32:52.691Z,97.61
2018-12-23T12:35:22.719Z,97.12
2018-12-23T12:37:52.279Z,97.06
2018-12-23T12:40:21.947Z,97.15
2018-12-23T12:42:51.455Z,96.99
2018-12-23T12:45:24.003Z,96.76
2018-12-23T12:47:53.287Z,97.08
2018-12-23T12:50:22.823Z,96.90
2018-12-23T12:52:52.590Z,96.69
2018-12-23T12:55:22.137Z,96.86
2018-12-23T12:57:51.752Z,96.02
2018-12-23T13:00:21.032Z,95.32
2018-12-23T13:02:50.328Z,94.70
2018-12-23T13:05:19.774Z,94.71
2018-12-23T13:07:49.367Z,93.42
2018-12-23T13:10:18.886Z,93.89
2018-12-23T13:12:49.156Z,94.01
2018-12-23T13:15:18.734Z,94.13
2018-12-23T13:17:48.002Z,94.24
2018-12-23T13:20:17.824Z,94.40
2018-12-23T13:22:47.108Z,94.62
2018-12-23T13:25:16.394Z,94.84
2018-12-23T13:27:45.957Z,94.53
2018-12-23T13:30:15.259Z,94.48
2018-12-23T13:32:45.113Z,94.59
2018-12-23T13:35:14.971Z,94.85
2018-12-23T13:37:44.734Z,94.85
2018-12-23T13:40:25.900Z,94.77
2018-12-23T13:43:17.965Z,94.59
2018-12-23T13:45:58.774Z,94.96
2018-12-23T13:48:56.484Z,94.95
2018-12-23T13:51:37.094Z,95.07
2018-12-23T13:54:14.290Z,95.23
2018-12-23T13:56:50.868Z,95.70
2018-12-23T14:02:57.551Z,95.86
2018-12-23T14:05:35.979Z,96.07
2018-12-23T14:08:20.360Z,96.31
2018-12-23T14:10:53.154Z,96.47
2018-12-23T14:13:22.609Z,96.59
2018-12-23T14:15:52.048Z,96.75
2018-12-23T14:18:22.958Z,96.90
2018-12-23T14:20:52.390Z,97.03
2018-12-23T14:23:22.173Z,97.15
2018-12-23T14:25:51.614Z,97.19
2018-12-23T14:28:21.072Z,97.28
2018-12-23T14:30:50.603Z,97.38
2018-12-23T14:33:20.054Z,97.56
2018-12-23T14:35:49.490Z,97.67
2018-12-23T14:38:19.255Z,97.72
2018-12-23T14:40:48.692Z,97.72
2018-12-23T14:43:18.467Z,97.56
2018-12-23T14:45:47.954Z,97.55
2018-12-23T14:48:18.286Z,97.56
2018-12-23T14:50:47.798Z,97.55
2018-12-23T14:53:17.406Z,97.47
2018-12-23T14:55:47.189Z,97.44
2018-12-23T14:58:17.065Z,97.47
2018-12-23T15:00:46.511Z,97.42
2018-12-23T15:03:16.119Z,97.42
2018-12-23T15:05:45.804Z,97.41
2018-12-23T15:08:15.933Z,97.54
2018-12-23T15:10:45.368Z,97.62
2018-12-23T15:13:15.174Z,97.66
2018-12-23T15:15:44.617Z,97.68
2018-12-23T15:18:14.818Z,97.66
2018-12-23T15:20:44.250Z,97.68
2018-12-23T15:23:14.130Z,97.74
2018-12-23T15:25:43.569Z,97.79
2018-12-23T15:28:14.004Z,97.92
2018-12-23T15:30:43.444Z,98.04
2018-12-23T15:33:13.578Z,98.16
2018-12-23T15:35:43.020Z,98.26
2018-12-23T15:38:13.363Z,98.42
2018-12-23T15:40:42.799Z,98.54
2018-12-23T15:43:12.716Z,98.59
2018-12-23T15:45:42.149Z,98.67
2018-12-23T15:48:11.781Z,98.65
2018-12-23T15:50:41.874Z,98.62
2018-12-23T15:53:11.327Z,98.61
2018-12-23T15:55:40.589Z,98.67
2018-12-23T15:58:10.043Z,98.73
2018-12-23T16:00:39.485Z,98.79
2018-12-23T16:03:09.181Z,98.88
2018-12-23T16:05:38.779Z,98.92
2018-12-23T16:08:09.048Z,98.89
2018-12-23T16:10:38.505Z,99.06
2018-12-23T16:13:08.336Z,99.08
2018-12-23T16:15:37.771Z,99.15
2018-12-23T16:18:08.974Z,99.27
2018-12-23T16:20:38.697Z,99.51
2018-12-23T16:23:08.191Z,99.70
2018-12-23T16:25:37.636Z,99.88
2018-12-23T16:28:07.716Z,99.93
2018-12-23T16:30:37.216Z,99.82
2018-12-23T16:33:06.823Z,99.76
2018-12-23T16:35:36.263Z,99.67
2018-12-23T16:38:05.708Z,99.55
2018-12-23T16:40:35.159Z,99.39
2018-12-23T16:43:05.535Z,99.43
2018-12-23T16:45:34.989Z,99.58
2018-12-23T16:48:05.245Z,99.79
2018-12-23T16:50:34.768Z,99.94
2018-12-23T16:53:04.299Z,99.92
2018-12-23T16:55:34.645Z,99.97
2018-12-23T16:58:04.470Z,99.94
2018-12-23T17:00:34.181Z,99.81
2018-12-23T17:03:03.643Z,99.61
2018-12-23T17:05:33.101Z,99.44
2018-12-23T17:08:02.541Z,99.39
2018-12-23T17:10:32.030Z,99.38
2018-12-23T17:13:01.485Z,99.44
2018-12-23T17:15:31.084Z,99.40
2018-12-23T17:18:00.490Z,99.45
2018-12-23T17:20:29.947Z,99.54
2018-12-23T17:22:59.458Z,99.68
2018-12-23T17:25:28.965Z,99.71
2018-12-23T17:27:58.398Z,99.67
2018-12-23T17:30:27.847Z,99.52
2018-12-23T17:32:57.292Z,99.52
2018-12-23T17:35:26.744Z,99.50
2018-12-23T17:37:56.199Z,99.52
2018-12-23T17:40:25.701Z,99.59
2018-12-23T17:42:55.145Z,99.59
2018-12-23T17:45:24.599Z,99.57
2018-12-23T17:47:54.104Z,99.56
2018-12-23T17:50:23.556Z,99.56
2018-12-23T17:52:53.001Z,99.50
2018-12-23T17:55:22.450Z,99.45
2018-12-23T17:57:51.895Z,99.41
2018-12-23T18:00:21.349Z,99.33
2018-12-23T18:02:50.794Z,99.22
2018-12-23T18:05:20.257Z,99.16
2018-12-23T18:07:49.703Z,99.15
2018-12-23T18:10:24.932Z,99.16
2018-12-23T18:12:50.940Z,99.18
2018-12-23T18:15:20.839Z,99.25
2018-12-23T18:17:50.250Z,99.23
2018-12-23T18:20:19.704Z,99.08
2018-12-23T18:22:49.157Z,99.00
2018-12-23T18:25:18.636Z,99.04
2018-12-23T18:27:48.238Z,99.15
2018-12-23T18:30:17.947Z,99.23
2018-12-23T18:32:47.403Z,99.34
2018-12-23T18:35:16.903Z,99.49
2018-12-23T18:37:46.344Z,99.63
2018-12-23T18:40:15.788Z,99.55
2018-12-23T18:42:45.578Z,99.57
2018-12-23T18:45:15.018Z,99.60
2018-12-23T18:47:45.318Z,99.71
2018-12-23T18:50:14.749Z,99.74
2018-12-23T18:52:44.356Z,99.75
2018-12-23T18:55:13.814Z,99.65
2018-12-23T18:57:43.753Z,99.55
2018-12-23T19:00:13.192Z,99.57
2018-12-23T19:02:43.574Z,99.55
2018-12-23T19:05:13.016Z,99.60
2018-12-23T19:07:42.991Z,99.59
2018-12-23T19:10:24.968Z,99.54
2018-12-23T19:13:14.514Z,99.52
2018-12-23T19:15:52.860Z,99.45
2018-12-23T19:18:43.273Z,99.49
2018-12-23T19:21:32.644Z,99.41
2018-12-23T19:24:28.227Z,99.25
2018-12-23T19:27:15.686Z,99.05
2018-12-23T19:30:06.748Z,98.91
2018-12-23T19:32:45.131Z,98.81
2018-12-23T19:35:35.258Z,98.91
2018-12-23T19:38:16.712Z,98.96
2018-12-23T19:41:21.939Z,98.93
2018-12-23T19:43:54.695Z,98.66
2018-12-23T19:46:36.213Z,98.62
2018-12-23T19:49:32.795Z,98.71
2018-12-23T19:52:09.629Z,98.78
2018-12-23T19:54:44.939Z,98.85
2018-12-23T19:57:26.794Z,98.94
2018-12-23T20:00:04.060Z,99.01
2018-12-23T20:02:45.565Z,98.97
2018-12-23T20:05:50.431Z,98.93
2018-12-23T20:08:48.706Z,98.86
2018-12-23T20:11:55.060Z,98.72
2018-12-23T20:14:42.374Z,98.75
2018-12-23T20:17:39.025Z,98.78
2018-12-23T20:20:28.228Z,98.72
2018-12-23T20:23:23.425Z,98.86
2018-12-23T20:26:15.607Z,98.98
2018-12-23T20:29:12.623Z,98.89
2018-12-23T20:31:45.239Z,98.89
2018-12-23T20:34:30.176Z,99.00
2018-12-23T20:37:22.242Z,99.21
2018-12-23T20:40:03.573Z,99.34
2018-12-23T20:42:37.018Z,99.55
2018-12-23T20:45:12.548Z,99.66
2018-12-23T20:47:45.463Z,99.72
2018-12-23T20:50:21.000Z,99.75
2018-12-23T20:53:13.335Z,99.73
2018-12-23T20:55:48.522Z,99.78
2018-12-23T20:58:30.214Z,99.83
2018-12-23T21:01:06.038Z,99.87
2018-12-23T21:03:47.730Z,99.91
2018-12-23T21:06:45.689Z,99.79
2018-12-23T21:09:38.150Z,99.67
2018-12-23T21:12:10.758Z,99.64
2018-12-23T21:14:46.183Z,99.53
2018-12-23T21:17:31.003Z,99.64
2018-12-23T21:20:06.276Z,99.75
2018-12-23T21:22:44.624Z,99.79
2018-12-23T21:25:46.073Z,99.78
2018-12-23T21:28:43.322Z,99.68
2018-12-23T21:31:44.770Z,99.72
2018-12-23T21:34:36.706Z,99.68
2018-12-23T21:37:18.282Z,99.62
2018-12-23T21:39:54.500Z,99.61
2018-12-23T21:46:07.543Z,99.48
2018-12-23T21:48:52.843Z,99.47
2018-12-23T21:51:45.618Z,99.38
2018-12-23T21:54:27.075Z,99.39
2018-12-23T21:57:20.812Z,99.27
2018-12-23T22:00:05.589Z,99.43
2018-12-23T22:03:12.462Z,99.54
2018-12-23T22:06:06.845Z,99.57
2018-12-23T22:08:48.667Z,99.67
2018-12-23T22:11:41.209Z,99.79
2018-12-23T22:14:10.545Z,99.91
2018-12-23T22:16:40.166Z,99.86
2018-12-23T22:19:09.506Z,99.72
2018-12-23T22:21:39.056Z,99.72
2018-12-23T22:24:08.381Z,99.78
2018-12-23T22:26:37.958Z,99.62
2018-12-23T22:29:07.286Z,99.57
2018-12-23T22:31:36.623Z,99.49
2018-12-23T22:34:05.958Z,99.38
2018-12-23T22:36:35.874Z,99.25
2018-12-23T22:39:06.442Z,99.17
2018-12-23T22:41:41.296Z,99.36
2018-12-23T22:44:07.507Z,99.52
2018-12-23T22:46:37.093Z,99.63
2018-12-23T22:49:06.675Z,99.93
2018-12-23T22:51:36.709Z,100.00
2018-12-23T22:54:06.074Z,100.00
2018-12-23T22:56:37.612Z,100.00
2018-12-23T22:59:06.954Z,100.00
2018-12-23T23:01:39.885Z,100.00
2018-12-23T23:04:07.452Z,100.00
2018-12-23T23:06:36.860Z,100.00
2018-12-23T23:09:11.227Z,100.00
2018-12-23T23:11:40.600Z,100.00
2018-12-23T23:14:10.304Z,100.00
2018-12-23T23:16:39.663Z,100.00
2018-12-23T23:19:09.243Z,100.00
2018-12-23T23:21:38.658Z,100.00
2018-12-23T23:24:07.989Z,100.00
2018-12-23T23:26:37.350Z,100.00
2018-12-23T23:29:06.753Z,100.00
2018-12-23T23:31:36.111Z,100.00
2018-12-23T23:34:05.719Z,100.00
2018-12-23T23:36:35.094Z,100.00
2018-12-23T23:39:06.080Z,100.00
2018-12-23T23:41:35.679Z,100.00
2018-12-23T23:44:05.055Z,100.00
2018-12-23T23:46:34.400Z,100.00
2018-12-23T23:49:04.002Z,100.00
2018-12-23T23:51:34.320Z,100.00
2018-12-23T23:54:03.682Z,100.00
2018-12-23T23:56:33.044Z,100.00
2018-12-23T23:59:02.728Z,100.00
